sensor_id;sensor_type;location;lat;lon;timestamp;P1;durP1;ratioP1;P2;durP2;ratioP2
59756;SDS011;45631;51.962;5.974;2024-03-06T00:00:17;37.78;;;25.58;;
59756;SDS011;45631;51.962;5.974;2024-03-06T00:02:45;40.38;;;25.25;;
59756;SDS011;45631;51.962;5.974;2024-03-06T00:05:13;32.22;;;23.92;;
59756;SDS011;45631;51.962;5.974;2024-03-06T00:07:41;37.30;;;24.42;;
59756;SDS011;45631;51.962;5.974;2024-03-06T00:10:10;37.25;;;24.98;;
59756;SDS011;45631;51.962;5.974;2024-03-06T00:12:38;38.25;;;25.08;;
59756;SDS011;45631;51.962;5.974;2024-03-06T00:15:07;36.80;;;25.40;;
59756;SDS011;45631;51.962;5.974;2024-03-06T00:17:37;36.38;;;24.95;;
59756;SDS011;45631;51.962;5.974;2024-03-06T00:20:05;34.47;;;25.77;;
59756;SDS011;45631;51.962;5.974;2024-03-06T00:22:35;34.97;;;25.00;;
59756;SDS011;45631;51.962;5.974;2024-03-06T00:25:04;36.75;;;25.50;;
59756;SDS011;45631;51.962;5.974;2024-03-06T00:27:32;38.17;;;26.17;;
59756;SDS011;45631;51.962;5.974;2024-03-06T00:30:02;38.90;;;26.85;;
59756;SDS011;45631;51.962;5.974;2024-03-06T00:32:33;36.17;;;26.33;;
59756;SDS011;45631;51.962;5.974;2024-03-06T00:35:03;38.22;;;25.77;;
59756;SDS011;45631;51.962;5.974;2024-03-06T00:37:32;39.03;;;25.95;;
59756;SDS011;45631;51.962;5.974;2024-03-06T00:40:01;39.20;;;25.00;;
59756;SDS011;45631;51.962;5.974;2024-03-06T00:42:30;39.53;;;26.13;;
59756;SDS011;45631;51.962;5.974;2024-03-06T00:44:58;34.65;;;24.63;;
59756;SDS011;45631;51.962;5.974;2024-03-06T00:47:26;35.03;;;25.08;;
59756;SDS011;45631;51.962;5.974;2024-03-06T00:49:54;37.03;;;25.10;;
59756;SDS011;45631;51.962;5.974;2024-03-06T00:52:24;36.75;;;23.90;;
59756;SDS011;45631;51.962;5.974;2024-03-06T00:54:52;33.78;;;24.88;;
59756;SDS011;45631;51.962;5.974;2024-03-06T00:57:21;36.25;;;24.95;;
59756;SDS011;45631;51.962;5.974;2024-03-06T00:59:49;33.60;;;23.48;;
59756;SDS011;45631;51.962;5.974;2024-03-06T01:02:17;31.60;;;22.65;;
59756;SDS011;45631;51.962;5.974;2024-03-06T01:04:45;34.65;;;24.25;;
59756;SDS011;45631;51.962;5.974;2024-03-06T01:07:14;31.35;;;21.33;;
59756;SDS011;45631;51.962;5.974;2024-03-06T01:09:43;31.15;;;22.67;;
59756;SDS011;45631;51.962;5.974;2024-03-06T01:12:11;31.67;;;22.50;;
59756;SDS011;45631;51.962;5.974;2024-03-06T01:14:39;29.60;;;21.60;;
59756;SDS011;45631;51.962;5.974;2024-03-06T01:17:09;28.92;;;20.63;;
59756;SDS011;45631;51.962;5.974;2024-03-06T01:19:39;32.55;;;22.15;;
59756;SDS011;45631;51.962;5.974;2024-03-06T01:22:10;30.77;;;21.10;;
59756;SDS011;45631;51.962;5.974;2024-03-06T01:24:39;30.15;;;20.63;;
59756;SDS011;45631;51.962;5.974;2024-03-06T01:27:09;30.08;;;21.02;;
59756;SDS011;45631;51.962;5.974;2024-03-06T01:29:38;29.38;;;20.80;;
59756;SDS011;45631;51.962;5.974;2024-03-06T01:32:06;31.92;;;21.52;;
59756;SDS011;45631;51.962;5.974;2024-03-06T01:34:34;29.05;;;20.10;;
59756;SDS011;45631;51.962;5.974;2024-03-06T01:37:02;27.98;;;20.48;;
59756;SDS011;45631;51.962;5.974;2024-03-06T01:39:30;29.35;;;21.10;;
59756;SDS011;45631;51.962;5.974;2024-03-06T01:41:59;32.25;;;21.88;;
59756;SDS011;45631;51.962;5.974;2024-03-06T01:44:29;29.17;;;21.13;;
59756;SDS011;45631;51.962;5.974;2024-03-06T01:46:57;31.80;;;21.67;;
59756;SDS011;45631;51.962;5.974;2024-03-06T01:49:26;29.17;;;20.27;;
59756;SDS011;45631;51.962;5.974;2024-03-06T01:52:07;25.98;;;18.95;;
59756;SDS011;45631;51.962;5.974;2024-03-06T01:54:39;27.05;;;19.33;;
59756;SDS011;45631;51.962;5.974;2024-03-06T01:57:08;28.52;;;20.33;;
59756;SDS011;45631;51.962;5.974;2024-03-06T01:59:41;29.40;;;21.15;;
59756;SDS011;45631;51.962;5.974;2024-03-06T02:02:10;29.90;;;21.17;;
59756;SDS011;45631;51.962;5.974;2024-03-06T02:04:38;30.10;;;21.65;;
59756;SDS011;45631;51.962;5.974;2024-03-06T02:07:08;28.92;;;19.95;;
59756;SDS011;45631;51.962;5.974;2024-03-06T02:09:38;27.83;;;19.15;;
59756;SDS011;45631;51.962;5.974;2024-03-06T02:12:06;26.48;;;19.13;;
59756;SDS011;45631;51.962;5.974;2024-03-06T02:14:35;29.13;;;19.88;;
59756;SDS011;45631;51.962;5.974;2024-03-06T02:17:05;27.17;;;20.23;;
59756;SDS011;45631;51.962;5.974;2024-03-06T02:19:38;29.00;;;20.02;;
59756;SDS011;45631;51.962;5.974;2024-03-06T02:24:37;24.92;;;17.95;;
59756;SDS011;45631;51.962;5.974;2024-03-06T02:27:05;27.25;;;19.63;;
59756;SDS011;45631;51.962;5.974;2024-03-06T02:29:34;26.63;;;18.90;;
59756;SDS011;45631;51.962;5.974;2024-03-06T02:32:02;26.23;;;19.08;;
59756;SDS011;45631;51.962;5.974;2024-03-06T02:34:31;28.27;;;19.63;;
59756;SDS011;45631;51.962;5.974;2024-03-06T02:36:59;27.23;;;19.55;;
59756;SDS011;45631;51.962;5.974;2024-03-06T02:39:28;27.08;;;19.58;;
59756;SDS011;45631;51.962;5.974;2024-03-06T02:41:57;27.60;;;19.70;;
59756;SDS011;45631;51.962;5.974;2024-03-06T02:44:25;28.00;;;19.88;;
59756;SDS011;45631;51.962;5.974;2024-03-06T02:46:53;26.83;;;18.75;;
59756;SDS011;45631;51.962;5.974;2024-03-06T02:49:21;24.80;;;18.65;;
59756;SDS011;45631;51.962;5.974;2024-03-06T02:51:49;31.17;;;20.83;;
59756;SDS011;45631;51.962;5.974;2024-03-06T02:54:18;35.53;;;20.98;;
59756;SDS011;45631;51.962;5.974;2024-03-06T02:56:48;35.25;;;21.92;;
59756;SDS011;45631;51.962;5.974;2024-03-06T02:59:18;41.15;;;23.65;;
59756;SDS011;45631;51.962;5.974;2024-03-06T03:01:46;34.67;;;21.88;;
59756;SDS011;45631;51.962;5.974;2024-03-06T03:04:15;36.08;;;22.98;;
59756;SDS011;45631;51.962;5.974;2024-03-06T03:06:43;39.05;;;24.35;;
59756;SDS011;45631;51.962;5.974;2024-03-06T03:09:11;32.70;;;22.60;;
59756;SDS011;45631;51.962;5.974;2024-03-06T03:11:41;35.88;;;22.92;;
59756;SDS011;45631;51.962;5.974;2024-03-06T03:14:12;35.65;;;21.80;;
59756;SDS011;45631;51.962;5.974;2024-03-06T03:16:40;31.90;;;20.77;;
59756;SDS011;45631;51.962;5.974;2024-03-06T03:19:09;26.92;;;20.48;;
59756;SDS011;45631;51.962;5.974;2024-03-06T03:21:37;30.95;;;20.77;;
59756;SDS011;45631;51.962;5.974;2024-03-06T03:24:05;32.17;;;19.67;;
59756;SDS011;45631;51.962;5.974;2024-03-06T03:26:33;22.75;;;17.60;;
59756;SDS011;45631;51.962;5.974;2024-03-06T03:29:02;22.63;;;18.08;;
59756;SDS011;45631;51.962;5.974;2024-03-06T03:31:33;24.95;;;18.50;;
59756;SDS011;45631;51.962;5.974;2024-03-06T03:34:02;21.48;;;16.70;;
59756;SDS011;45631;51.962;5.974;2024-03-06T03:36:31;20.52;;;16.45;;
59756;SDS011;45631;51.962;5.974;2024-03-06T03:38:59;21.77;;;16.92;;
59756;SDS011;45631;51.962;5.974;2024-03-06T03:41:30;20.58;;;16.33;;
59756;SDS011;45631;51.962;5.974;2024-03-06T03:43:58;20.15;;;16.30;;
59756;SDS011;45631;51.962;5.974;2024-03-06T03:46:26;20.67;;;15.98;;
59756;SDS011;45631;51.962;5.974;2024-03-06T03:48:55;19.50;;;16.20;;
59756;SDS011;45631;51.962;5.974;2024-03-06T03:51:24;18.83;;;15.55;;
59756;SDS011;45631;51.962;5.974;2024-03-06T03:53:52;22.65;;;15.52;;
59756;SDS011;45631;51.962;5.974;2024-03-06T03:56:20;24.42;;;16.52;;
59756;SDS011;45631;51.962;5.974;2024-03-06T03:58:50;22.55;;;15.20;;
59756;SDS011;45631;51.962;5.974;2024-03-06T04:01:18;19.55;;;15.93;;
59756;SDS011;45631;51.962;5.974;2024-03-06T04:03:46;18.02;;;15.10;;
59756;SDS011;45631;51.962;5.974;2024-03-06T04:06:16;19.58;;;15.13;;
59756;SDS011;45631;51.962;5.974;2024-03-06T04:08:45;29.75;;;16.35;;
59756;SDS011;45631;51.962;5.974;2024-03-06T04:11:13;23.98;;;15.73;;
59756;SDS011;45631;51.962;5.974;2024-03-06T04:13:41;23.85;;;17.35;;
59756;SDS011;45631;51.962;5.974;2024-03-06T04:16:15;34.67;;;17.85;;
59756;SDS011;45631;51.962;5.974;2024-03-06T04:18:44;23.20;;;16.95;;
59756;SDS011;45631;51.962;5.974;2024-03-06T04:21:13;29.40;;;17.60;;
59756;SDS011;45631;51.962;5.974;2024-03-06T04:23:44;22.58;;;17.52;;
59756;SDS011;45631;51.962;5.974;2024-03-06T04:26:12;24.13;;;17.75;;
59756;SDS011;45631;51.962;5.974;2024-03-06T04:28:41;23.05;;;17.23;;
59756;SDS011;45631;51.962;5.974;2024-03-06T04:31:09;26.25;;;19.27;;
59756;SDS011;45631;51.962;5.974;2024-03-06T04:33:38;26.95;;;20.73;;
59756;SDS011;45631;51.962;5.974;2024-03-06T04:36:06;36.80;;;21.92;;
59756;SDS011;45631;51.962;5.974;2024-03-06T04:38:35;35.83;;;20.23;;
59756;SDS011;45631;51.962;5.974;2024-03-06T04:41:06;30.73;;;21.30;;
59756;SDS011;45631;51.962;5.974;2024-03-06T04:43:34;31.08;;;19.60;;
59756;SDS011;45631;51.962;5.974;2024-03-06T04:46:02;25.40;;;19.63;;
59756;SDS011;45631;51.962;5.974;2024-03-06T04:48:31;26.92;;;20.02;;
59756;SDS011;45631;51.962;5.974;2024-03-06T04:50:59;25.92;;;18.30;;
59756;SDS011;45631;51.962;5.974;2024-03-06T04:53:28;34.72;;;19.10;;
59756;SDS011;45631;51.962;5.974;2024-03-06T04:55:56;33.08;;;19.48;;
59756;SDS011;45631;51.962;5.974;2024-03-06T04:58:25;34.72;;;20.52;;
59756;SDS011;45631;51.962;5.974;2024-03-06T05:00:54;27.65;;;19.05;;
59756;SDS011;45631;51.962;5.974;2024-03-06T05:03:22;25.10;;;19.23;;
59756;SDS011;45631;51.962;5.974;2024-03-06T05:06:07;65.20;;;20.63;;
59756;SDS011;45631;51.962;5.974;2024-03-06T05:08:53;54.20;;;21.27;;
59756;SDS011;45631;51.962;5.974;2024-03-06T05:11:39;64.13;;;21.73;;
59756;SDS011;45631;51.962;5.974;2024-03-06T05:14:26;51.17;;;21.80;;
59756;SDS011;45631;51.962;5.974;2024-03-06T05:17:11;64.25;;;21.40;;
59756;SDS011;45631;51.962;5.974;2024-03-06T05:19:57;90.90;;;25.25;;
59756;SDS011;45631;51.962;5.974;2024-03-06T05:22:45;44.60;;;20.20;;
59756;SDS011;45631;51.962;5.974;2024-03-06T05:25:30;63.50;;;22.17;;
59756;SDS011;45631;51.962;5.974;2024-03-06T05:28:16;65.95;;;22.90;;
59756;SDS011;45631;51.962;5.974;2024-03-06T05:31:13;58.92;;;20.10;;
59756;SDS011;45631;51.962;5.974;2024-03-06T05:34:01;73.63;;;21.63;;
59756;SDS011;45631;51.962;5.974;2024-03-06T05:36:49;47.78;;;20.38;;
59756;SDS011;45631;51.962;5.974;2024-03-06T05:39:34;73.53;;;21.52;;
59756;SDS011;45631;51.962;5.974;2024-03-06T05:42:21;65.70;;;20.02;;
59756;SDS011;45631;51.962;5.974;2024-03-06T05:45:07;48.95;;;20.10;;
59756;SDS011;45631;51.962;5.974;2024-03-06T05:47:55;35.50;;;17.88;;
59756;SDS011;45631;51.962;5.974;2024-03-06T05:50:41;41.40;;;18.45;;
59756;SDS011;45631;51.962;5.974;2024-03-06T05:53:27;59.78;;;20.08;;
59756;SDS011;45631;51.962;5.974;2024-03-06T05:56:12;49.85;;;20.35;;
59756;SDS011;45631;51.962;5.974;2024-03-06T05:58:57;48.40;;;21.10;;
59756;SDS011;45631;51.962;5.974;2024-03-06T06:01:31;46.00;;;20.67;;
59756;SDS011;45631;51.962;5.974;2024-03-06T06:04:00;29.13;;;19.92;;
59756;SDS011;45631;51.962;5.974;2024-03-06T06:06:33;50.95;;;23.30;;
59756;SDS011;45631;51.962;5.974;2024-03-06T06:09:01;34.53;;;20.95;;
59756;SDS011;45631;51.962;5.974;2024-03-06T06:11:34;60.08;;;22.38;;
59756;SDS011;45631;51.962;5.974;2024-03-06T06:14:02;33.28;;;20.30;;
59756;SDS011;45631;51.962;5.974;2024-03-06T06:16:35;33.67;;;20.92;;
59756;SDS011;45631;51.962;5.974;2024-03-06T06:19:05;33.40;;;20.48;;
59756;SDS011;45631;51.962;5.974;2024-03-06T06:21:34;30.20;;;20.85;;
59756;SDS011;45631;51.962;5.974;2024-03-06T06:24:03;26.38;;;20.45;;
59756;SDS011;45631;51.962;5.974;2024-03-06T06:26:32;28.45;;;22.08;;
59756;SDS011;45631;51.962;5.974;2024-03-06T06:29:00;40.55;;;22.25;;
59756;SDS011;45631;51.962;5.974;2024-03-06T06:31:29;31.73;;;21.67;;
59756;SDS011;45631;51.962;5.974;2024-03-06T06:33:57;34.03;;;22.25;;
59756;SDS011;45631;51.962;5.974;2024-03-06T06:36:27;34.67;;;22.85;;
59756;SDS011;45631;51.962;5.974;2024-03-06T06:38:56;28.30;;;22.02;;
59756;SDS011;45631;51.962;5.974;2024-03-06T06:41:26;43.33;;;23.13;;
59756;SDS011;45631;51.962;5.974;2024-03-06T06:43:54;30.30;;;21.67;;
59756;SDS011;45631;51.962;5.974;2024-03-06T06:46:22;30.60;;;21.80;;
59756;SDS011;45631;51.962;5.974;2024-03-06T06:48:50;31.42;;;22.42;;
59756;SDS011;45631;51.962;5.974;2024-03-06T06:51:19;32.40;;;23.10;;
59756;SDS011;45631;51.962;5.974;2024-03-06T06:53:48;36.45;;;22.92;;
59756;SDS011;45631;51.962;5.974;2024-03-06T06:56:17;37.55;;;23.77;;
59756;SDS011;45631;51.962;5.974;2024-03-06T06:58:45;36.33;;;23.08;;
59756;SDS011;45631;51.962;5.974;2024-03-06T07:01:13;40.17;;;22.70;;
59756;SDS011;45631;51.962;5.974;2024-03-06T07:03:43;30.17;;;22.23;;
59756;SDS011;45631;51.962;5.974;2024-03-06T07:06:11;39.10;;;23.52;;
59756;SDS011;45631;51.962;5.974;2024-03-06T07:08:40;33.67;;;21.77;;
59756;SDS011;45631;51.962;5.974;2024-03-06T07:11:09;49.70;;;21.65;;
59756;SDS011;45631;51.962;5.974;2024-03-06T07:13:38;64.47;;;21.90;;
59756;SDS011;45631;51.962;5.974;2024-03-06T07:16:07;28.23;;;21.45;;
59756;SDS011;45631;51.962;5.974;2024-03-06T07:18:35;33.92;;;22.65;;
59756;SDS011;45631;51.962;5.974;2024-03-06T07:21:03;42.92;;;21.20;;
59756;SDS011;45631;51.962;5.974;2024-03-06T07:23:32;31.65;;;20.33;;
59756;SDS011;45631;51.962;5.974;2024-03-06T07:26:00;32.50;;;20.13;;
59756;SDS011;45631;51.962;5.974;2024-03-06T07:28:30;38.78;;;21.88;;
59756;SDS011;45631;51.962;5.974;2024-03-06T07:30:59;42.20;;;22.77;;
59756;SDS011;45631;51.962;5.974;2024-03-06T07:33:27;112.03;;;23.50;;
59756;SDS011;45631;51.962;5.974;2024-03-06T07:35:55;30.40;;;20.55;;
59756;SDS011;45631;51.962;5.974;2024-03-06T07:38:23;53.50;;;22.17;;
59756;SDS011;45631;51.962;5.974;2024-03-06T07:40:52;39.50;;;22.90;;
59756;SDS011;45631;51.962;5.974;2024-03-06T07:43:20;40.88;;;22.60;;
59756;SDS011;45631;51.962;5.974;2024-03-06T07:45:51;58.83;;;22.35;;
59756;SDS011;45631;51.962;5.974;2024-03-06T07:48:19;29.88;;;21.52;;
59756;SDS011;45631;51.962;5.974;2024-03-06T07:50:47;32.20;;;22.10;;
59756;SDS011;45631;51.962;5.974;2024-03-06T07:53:15;78.70;;;22.90;;
59756;SDS011;45631;51.962;5.974;2024-03-06T07:55:44;52.45;;;21.50;;
59756;SDS011;45631;51.962;5.974;2024-03-06T07:58:12;42.67;;;23.48;;
59756;SDS011;45631;51.962;5.974;2024-03-06T08:00:40;52.13;;;23.60;;
59756;SDS011;45631;51.962;5.974;2024-03-06T08:03:09;32.13;;;22.50;;
59756;SDS011;45631;51.962;5.974;2024-03-06T08:05:40;115.38;;;26.48;;
59756;SDS011;45631;51.962;5.974;2024-03-06T08:08:08;38.90;;;25.30;;
59756;SDS011;45631;51.962;5.974;2024-03-06T08:10:36;78.38;;;26.42;;
59756;SDS011;45631;51.962;5.974;2024-03-06T08:13:04;68.68;;;26.33;;
59756;SDS011;45631;51.962;5.974;2024-03-06T08:15:33;61.45;;;26.23;;
59756;SDS011;45631;51.962;5.974;2024-03-06T08:18:01;85.88;;;26.85;;
59756;SDS011;45631;51.962;5.974;2024-03-06T08:20:33;102.07;;;29.90;;
59756;SDS011;45631;51.962;5.974;2024-03-06T08:23:06;73.97;;;27.50;;
59756;SDS011;45631;51.962;5.974;2024-03-06T08:25:36;41.63;;;26.98;;
59756;SDS011;45631;51.962;5.974;2024-03-06T08:28:04;74.35;;;29.50;;
59756;SDS011;45631;51.962;5.974;2024-03-06T08:30:33;68.03;;;30.70;;
59756;SDS011;45631;51.962;5.974;2024-03-06T08:33:01;119.88;;;32.15;;
59756;SDS011;45631;51.962;5.974;2024-03-06T08:35:29;114.00;;;31.88;;
59756;SDS011;45631;51.962;5.974;2024-03-06T08:38:00;68.15;;;30.95;;
59756;SDS011;45631;51.962;5.974;2024-03-06T08:40:28;111.45;;;32.50;;
59756;SDS011;45631;51.962;5.974;2024-03-06T08:42:56;52.88;;;31.65;;
59756;SDS011;45631;51.962;5.974;2024-03-06T08:45:25;99.70;;;32.10;;
59756;SDS011;45631;51.962;5.974;2024-03-06T08:47:53;89.10;;;33.65;;
59756;SDS011;45631;51.962;5.974;2024-03-06T08:50:21;59.45;;;30.92;;
59756;SDS011;45631;51.962;5.974;2024-03-06T08:52:51;116.22;;;33.65;;
59756;SDS011;45631;51.962;5.974;2024-03-06T08:55:21;68.72;;;33.72;;
59756;SDS011;45631;51.962;5.974;2024-03-06T08:57:50;65.95;;;32.20;;
59756;SDS011;45631;51.962;5.974;2024-03-06T09:00:19;88.55;;;32.17;;
59756;SDS011;45631;51.962;5.974;2024-03-06T09:02:47;67.78;;;33.50;;
59756;SDS011;45631;51.962;5.974;2024-03-06T09:05:16;86.35;;;34.35;;
59756;SDS011;45631;51.962;5.974;2024-03-06T09:07:44;85.35;;;34.03;;
59756;SDS011;45631;51.962;5.974;2024-03-06T09:10:13;71.28;;;33.00;;
59756;SDS011;45631;51.962;5.974;2024-03-06T09:12:42;92.75;;;37.40;;
59756;SDS011;45631;51.962;5.974;2024-03-06T09:15:11;97.75;;;35.63;;
59756;SDS011;45631;51.962;5.974;2024-03-06T09:17:39;74.85;;;37.10;;
59756;SDS011;45631;51.962;5.974;2024-03-06T09:20:08;69.28;;;35.13;;
59756;SDS011;45631;51.962;5.974;2024-03-06T09:22:40;86.05;;;37.35;;
59756;SDS011;45631;51.962;5.974;2024-03-06T09:25:09;73.97;;;36.38;;
59756;SDS011;45631;51.962;5.974;2024-03-06T09:27:43;79.30;;;35.47;;
59756;SDS011;45631;51.962;5.974;2024-03-06T09:30:12;87.78;;;39.95;;
59756;SDS011;45631;51.962;5.974;2024-03-06T09:32:45;87.30;;;40.40;;
59756;SDS011;45631;51.962;5.974;2024-03-06T09:35:15;85.00;;;40.55;;
59756;SDS011;45631;51.962;5.974;2024-03-06T09:37:45;86.07;;;40.97;;
59756;SDS011;45631;51.962;5.974;2024-03-06T09:40:19;85.47;;;38.60;;
59756;SDS011;45631;51.962;5.974;2024-03-06T09:42:50;84.93;;;38.63;;
59756;SDS011;45631;51.962;5.974;2024-03-06T09:45:20;83.10;;;38.45;;
59756;SDS011;45631;51.962;5.974;2024-03-06T09:47:51;83.37;;;39.13;;
59756;SDS011;45631;51.962;5.974;2024-03-06T09:50:22;77.53;;;37.35;;
59756;SDS011;45631;51.962;5.974;2024-03-06T09:52:53;83.72;;;39.67;;
59756;SDS011;45631;51.962;5.974;2024-03-06T09:55:23;83.68;;;39.35;;
59756;SDS011;45631;51.962;5.974;2024-03-06T09:57:54;76.10;;;36.45;;
59756;SDS011;45631;51.962;5.974;2024-03-06T10:00:22;73.82;;;37.20;;
59756;SDS011;45631;51.962;5.974;2024-03-06T10:02:54;69.93;;;35.30;;
59756;SDS011;45631;51.962;5.974;2024-03-06T10:05:26;70.10;;;36.05;;
59756;SDS011;45631;51.962;5.974;2024-03-06T10:07:57;68.32;;;33.65;;
59756;SDS011;45631;51.962;5.974;2024-03-06T10:10:26;67.65;;;34.42;;
59756;SDS011;45631;51.962;5.974;2024-03-06T10:12:56;69.80;;;33.45;;
59756;SDS011;45631;51.962;5.974;2024-03-06T10:15:28;69.82;;;34.40;;
59756;SDS011;45631;51.962;5.974;2024-03-06T10:18:10;70.88;;;35.28;;
59756;SDS011;45631;51.962;5.974;2024-03-06T10:20:40;71.35;;;34.10;;
59756;SDS011;45631;51.962;5.974;2024-03-06T10:23:11;74.32;;;36.72;;
59756;SDS011;45631;51.962;5.974;2024-03-06T10:25:42;74.47;;;35.50;;
59756;SDS011;45631;51.962;5.974;2024-03-06T10:28:12;80.00;;;36.85;;
59756;SDS011;45631;51.962;5.974;2024-03-06T10:30:41;71.35;;;37.00;;
59756;SDS011;45631;51.962;5.974;2024-03-06T10:33:10;72.72;;;36.20;;
59756;SDS011;45631;51.962;5.974;2024-03-06T10:35:39;73.85;;;36.50;;
59756;SDS011;45631;51.962;5.974;2024-03-06T10:38:08;69.07;;;35.58;;
59756;SDS011;45631;51.962;5.974;2024-03-06T10:40:39;64.30;;;33.80;;
59756;SDS011;45631;51.962;5.974;2024-03-06T10:43:08;69.05;;;35.65;;
59756;SDS011;45631;51.962;5.974;2024-03-06T10:45:41;70.47;;;35.60;;
59756;SDS011;45631;51.962;5.974;2024-03-06T10:48:15;66.93;;;34.08;;
59756;SDS011;45631;51.962;5.974;2024-03-06T10:50:45;64.68;;;35.88;;
59756;SDS011;45631;51.962;5.974;2024-03-06T10:53:14;64.47;;;34.95;;
59756;SDS011;45631;51.962;5.974;2024-03-06T10:55:49;59.92;;;32.92;;
59756;SDS011;45631;51.962;5.974;2024-03-06T10:58:20;58.53;;;31.73;;
59756;SDS011;45631;51.962;5.974;2024-03-06T11:00:51;58.83;;;32.22;;
59756;SDS011;45631;51.962;5.974;2024-03-06T11:03:22;61.28;;;33.65;;
59756;SDS011;45631;51.962;5.974;2024-03-06T11:05:51;60.33;;;32.15;;
59756;SDS011;45631;51.962;5.974;2024-03-06T11:08:19;59.08;;;32.83;;
59756;SDS011;45631;51.962;5.974;2024-03-06T11:10:48;60.00;;;33.72;;
59756;SDS011;45631;51.962;5.974;2024-03-06T11:13:23;58.20;;;31.98;;
59756;SDS011;45631;51.962;5.974;2024-03-06T11:15:56;54.13;;;32.25;;
59756;SDS011;45631;51.962;5.974;2024-03-06T11:18:41;56.17;;;32.55;;
59756;SDS011;45631;51.962;5.974;2024-03-06T11:21:28;51.40;;;30.25;;
59756;SDS011;45631;51.962;5.974;2024-03-06T11:24:13;53.78;;;30.90;;
59756;SDS011;45631;51.962;5.974;2024-03-06T11:26:57;50.63;;;29.35;;
59756;SDS011;45631;51.962;5.974;2024-03-06T11:32:38;53.33;;;31.42;;
59756;SDS011;45631;51.962;5.974;2024-03-06T11:35:25;54.47;;;32.13;;
59756;SDS011;45631;51.962;5.974;2024-03-06T11:37:56;53.67;;;31.40;;
59756;SDS011;45631;51.962;5.974;2024-03-06T11:40:26;50.58;;;30.83;;
59756;SDS011;45631;51.962;5.974;2024-03-06T11:42:55;50.72;;;30.58;;
59756;SDS011;45631;51.962;5.974;2024-03-06T11:45:23;51.63;;;30.20;;
59756;SDS011;45631;51.962;5.974;2024-03-06T11:47:57;50.88;;;30.15;;
59756;SDS011;45631;51.962;5.974;2024-03-06T11:50:29;48.80;;;29.52;;
59756;SDS011;45631;51.962;5.974;2024-03-06T11:52:58;49.88;;;30.48;;
59756;SDS011;45631;51.962;5.974;2024-03-06T11:55:26;51.33;;;31.20;;
59756;SDS011;45631;51.962;5.974;2024-03-06T11:57:55;50.67;;;30.77;;
59756;SDS011;45631;51.962;5.974;2024-03-06T12:00:23;52.22;;;32.35;;
59756;SDS011;45631;51.962;5.974;2024-03-06T12:02:51;46.90;;;29.17;;
59756;SDS011;45631;51.962;5.974;2024-03-06T12:05:21;52.00;;;31.17;;
59756;SDS011;45631;51.962;5.974;2024-03-06T12:07:51;48.47;;;29.73;;
59756;SDS011;45631;51.962;5.974;2024-03-06T12:10:20;46.13;;;28.52;;
59756;SDS011;45631;51.962;5.974;2024-03-06T12:12:49;44.17;;;28.42;;
59756;SDS011;45631;51.962;5.974;2024-03-06T12:15:17;42.90;;;27.38;;
59756;SDS011;45631;51.962;5.974;2024-03-06T12:17:47;45.10;;;27.90;;
59756;SDS011;45631;51.962;5.974;2024-03-06T12:20:17;45.47;;;28.70;;
59756;SDS011;45631;51.962;5.974;2024-03-06T12:22:49;45.63;;;28.85;;
59756;SDS011;45631;51.962;5.974;2024-03-06T12:25:18;47.00;;;29.15;;
59756;SDS011;45631;51.962;5.974;2024-03-06T12:27:48;44.50;;;27.60;;
59756;SDS011;45631;51.962;5.974;2024-03-06T12:30:17;42.30;;;26.98;;
59756;SDS011;45631;51.962;5.974;2024-03-06T12:32:55;42.72;;;27.52;;
59756;SDS011;45631;51.962;5.974;2024-03-06T12:35:24;42.42;;;28.83;;
59756;SDS011;45631;51.962;5.974;2024-03-06T12:37:54;43.13;;;28.65;;
59756;SDS011;45631;51.962;5.974;2024-03-06T12:40:22;41.85;;;27.50;;
59756;SDS011;45631;51.962;5.974;2024-03-06T12:42:50;43.17;;;27.42;;
59756;SDS011;45631;51.962;5.974;2024-03-06T12:45:20;39.20;;;27.10;;
59756;SDS011;45631;51.962;5.974;2024-03-06T12:47:48;40.42;;;26.63;;
59756;SDS011;45631;51.962;5.974;2024-03-06T12:50:17;46.58;;;28.05;;
59756;SDS011;45631;51.962;5.974;2024-03-06T12:52:47;45.17;;;28.40;;
59756;SDS011;45631;51.962;5.974;2024-03-06T12:55:16;38.20;;;25.67;;
59756;SDS011;45631;51.962;5.974;2024-03-06T12:57:45;41.15;;;26.92;;
59756;SDS011;45631;51.962;5.974;2024-03-06T13:00:13;38.75;;;27.50;;
59756;SDS011;45631;51.962;5.974;2024-03-06T13:02:43;36.58;;;26.95;;
59756;SDS011;45631;51.962;5.974;2024-03-06T13:05:11;37.83;;;26.23;;
59756;SDS011;45631;51.962;5.974;2024-03-06T13:07:42;36.25;;;26.42;;
59756;SDS011;45631;51.962;5.974;2024-03-06T13:10:10;34.13;;;24.98;;
59756;SDS011;45631;51.962;5.974;2024-03-06T13:12:40;36.50;;;25.15;;
59756;SDS011;45631;51.962;5.974;2024-03-06T13:15:09;38.58;;;27.27;;
59756;SDS011;45631;51.962;5.974;2024-03-06T13:17:37;34.42;;;25.88;;
59756;SDS011;45631;51.962;5.974;2024-03-06T13:20:07;34.53;;;25.20;;
59756;SDS011;45631;51.962;5.974;2024-03-06T13:22:38;33.35;;;24.65;;
59756;SDS011;45631;51.962;5.974;2024-03-06T13:25:07;29.17;;;21.80;;
59756;SDS011;45631;51.962;5.974;2024-03-06T13:27:36;29.42;;;21.00;;
59756;SDS011;45631;51.962;5.974;2024-03-06T13:30:07;27.02;;;19.83;;
59756;SDS011;45631;51.962;5.974;2024-03-06T13:32:35;28.65;;;22.13;;
59756;SDS011;45631;51.962;5.974;2024-03-06T13:35:04;25.92;;;18.30;;
59756;SDS011;45631;51.962;5.974;2024-03-06T13:37:33;25.55;;;17.88;;
59756;SDS011;45631;51.962;5.974;2024-03-06T13:40:02;20.25;;;14.52;;
59756;SDS011;45631;51.962;5.974;2024-03-06T13:42:36;20.10;;;14.32;;
59756;SDS011;45631;51.962;5.974;2024-03-06T13:45:07;20.52;;;14.55;;
59756;SDS011;45631;51.962;5.974;2024-03-06T13:47:38;26.45;;;17.92;;
59756;SDS011;45631;51.962;5.974;2024-03-06T13:50:08;26.05;;;18.30;;
59756;SDS011;45631;51.962;5.974;2024-03-06T13:52:37;24.63;;;17.35;;
59756;SDS011;45631;51.962;5.974;2024-03-06T13:55:06;26.88;;;17.92;;
59756;SDS011;45631;51.962;5.974;2024-03-06T13:57:36;26.42;;;19.33;;
59756;SDS011;45631;51.962;5.974;2024-03-06T14:00:07;26.02;;;18.40;;
59756;SDS011;45631;51.962;5.974;2024-03-06T14:02:44;23.05;;;16.13;;
59756;SDS011;45631;51.962;5.974;2024-03-06T14:05:13;18.58;;;13.23;;
59756;SDS011;45631;51.962;5.974;2024-03-06T14:07:42;17.42;;;12.32;;
59756;SDS011;45631;51.962;5.974;2024-03-06T14:10:10;18.48;;;12.48;;
59756;SDS011;45631;51.962;5.974;2024-03-06T14:12:38;19.15;;;12.90;;
59756;SDS011;45631;51.962;5.974;2024-03-06T14:15:08;16.65;;;11.75;;
59756;SDS011;45631;51.962;5.974;2024-03-06T14:17:39;16.58;;;11.30;;
59756;SDS011;45631;51.962;5.974;2024-03-06T14:20:08;14.80;;;8.52;;
59756;SDS011;45631;51.962;5.974;2024-03-06T14:22:39;14.02;;;9.02;;
59756;SDS011;45631;51.962;5.974;2024-03-06T14:25:08;13.25;;;9.10;;
59756;SDS011;45631;51.962;5.974;2024-03-06T14:27:37;16.13;;;10.48;;
59756;SDS011;45631;51.962;5.974;2024-03-06T14:30:06;13.32;;;8.35;;
59756;SDS011;45631;51.962;5.974;2024-03-06T14:32:36;15.93;;;9.65;;
59756;SDS011;45631;51.962;5.974;2024-03-06T14:35:06;17.23;;;11.13;;
59756;SDS011;45631;51.962;5.974;2024-03-06T14:37:35;16.10;;;10.10;;
59756;SDS011;45631;51.962;5.974;2024-03-06T14:40:05;17.13;;;10.38;;
59756;SDS011;45631;51.962;5.974;2024-03-06T14:42:35;17.83;;;11.60;;
59756;SDS011;45631;51.962;5.974;2024-03-06T14:45:04;18.35;;;12.57;;